Baxley, Georgia
Current Conditions -  °F | °C
As of 8:35 PM on Tuesday 25 Nov 2014 (Local Time) from KBHC Reporting Station
Overcast Overcast  
Wind Chill: 12°   Ceiling: 500
Heat Index: 12°   Visibility: 10mi
Dew Point: 11°   Wind: 5mph
Humidity: 94%   Direction: 10°N
Pressure: 29.98"   Gusts: NA
Location:  31.76°N, 82.35°W
Report Text: KBHC 260135Z AUTO 01004KT 10SM BKN005 OVC010 12/11 A2998 RMK AO2
Loading
Personal Weather Stations






























Interactive Weather Map New forecast layout! Learn more

10-Day Weather Forecast

Advertisements
Track Severe Weather on mobile